sensor_id;sensor_type;location;lat;lon;timestamp;temperature;humidity
19906;DHT22;10115;50.906;4.438;2024-02-28T00:00:25;4.00;99.90
19906;DHT22;10115;50.906;4.438;2024-02-28T00:02:51;4.00;99.90
19906;DHT22;10115;50.906;4.438;2024-02-28T00:05:16;4.00;99.90
19906;DHT22;10115;50.906;4.438;2024-02-28T00:07:42;4.00;99.90
19906;DHT22;10115;50.906;4.438;2024-02-28T00:10:08;4.10;99.90
19906;DHT22;10115;50.906;4.438;2024-02-28T00:12:33;4.10;99.90
19906;DHT22;10115;50.906;4.438;2024-02-28T00:15:00;4.10;99.90
19906;DHT22;10115;50.906;4.438;2024-02-28T00:17:26;4.10;99.90
19906;DHT22;10115;50.906;4.438;2024-02-28T00:19:51;4.00;99.90
19906;DHT22;10115;50.906;4.438;2024-02-28T00:22:17;4.00;99.90
19906;DHT22;10115;50.906;4.438;2024-02-28T00:24:42;4.00;99.90
19906;DHT22;10115;50.906;4.438;2024-02-28T00:27:08;4.10;99.90
19906;DHT22;10115;50.906;4.438;2024-02-28T00:29:34;4.30;99.90
19906;DHT22;10115;50.906;4.438;2024-02-28T00:31:59;4.40;99.90
19906;DHT22;10115;50.906;4.438;2024-02-28T00:34:25;4.40;99.90
19906;DHT22;10115;50.906;4.438;2024-02-28T00:36:51;4.40;99.90
19906;DHT22;10115;50.906;4.438;2024-02-28T00:39:17;4.40;99.90
19906;DHT22;10115;50.906;4.438;2024-02-28T00:41:42;4.30;99.90
19906;DHT22;10115;50.906;4.438;2024-02-28T00:44:08;4.20;99.90
19906;DHT22;10115;50.906;4.438;2024-02-28T00:46:34;4.10;99.90
19906;DHT22;10115;50.906;4.438;2024-02-28T00:49:00;4.10;99.90
19906;DHT22;10115;50.906;4.438;2024-02-28T00:51:25;4.00;99.90
19906;DHT22;10115;50.906;4.438;2024-02-28T00:53:51;4.00;99.90
19906;DHT22;10115;50.906;4.438;2024-02-28T00:56:17;3.80;99.90
19906;DHT22;10115;50.906;4.438;2024-02-28T00:58:44;3.80;99.90
19906;DHT22;10115;50.906;4.438;2024-02-28T01:01:10;3.70;99.90
19906;DHT22;10115;50.906;4.438;2024-02-28T01:03:35;3.70;99.90
19906;DHT22;10115;50.906;4.438;2024-02-28T01:06:01;3.80;99.90
19906;DHT22;10115;50.906;4.438;2024-02-28T01:08:29;3.80;99.90
19906;DHT22;10115;50.906;4.438;2024-02-28T01:10:54;3.90;99.90
19906;DHT22;10115;50.906;4.438;2024-02-28T01:13:20;3.80;99.90
19906;DHT22;10115;50.906;4.438;2024-02-28T01:15:46;3.80;99.90
19906;DHT22;10115;50.906;4.438;2024-02-28T01:18:12;3.80;99.90
19906;DHT22;10115;50.906;4.438;2024-02-28T01:20:37;4.00;99.90
19906;DHT22;10115;50.906;4.438;2024-02-28T01:23:03;4.00;99.90
19906;DHT22;10115;50.906;4.438;2024-02-28T01:25:29;3.90;99.90
19906;DHT22;10115;50.906;4.438;2024-02-28T01:27:56;3.80;99.90
19906;DHT22;10115;50.906;4.438;2024-02-28T01:30:23;3.80;99.90
19906;DHT22;10115;50.906;4.438;2024-02-28T01:32:49;3.80;99.90
19906;DHT22;10115;50.906;4.438;2024-02-28T01:35:15;3.70;99.90
19906;DHT22;10115;50.906;4.438;2024-02-28T01:37:40;3.80;99.90
19906;DHT22;10115;50.906;4.438;2024-02-28T01:40:07;3.60;99.90
19906;DHT22;10115;50.906;4.438;2024-02-28T01:42:32;3.50;99.90
19906;DHT22;10115;50.906;4.438;2024-02-28T01:44:58;3.40;99.90
19906;DHT22;10115;50.906;4.438;2024-02-28T01:47:24;3.30;99.90
19906;DHT22;10115;50.906;4.438;2024-02-28T01:49:50;3.20;99.90
19906;DHT22;10115;50.906;4.438;2024-02-28T01:52:17;3.20;99.90
19906;DHT22;10115;50.906;4.438;2024-02-28T01:54:43;3.20;99.90
19906;DHT22;10115;50.906;4.438;2024-02-28T01:57:09;3.20;99.90
19906;DHT22;10115;50.906;4.438;2024-02-28T01:59:35;3.20;99.90
19906;DHT22;10115;50.906;4.438;2024-02-28T02:02:00;3.10;99.90
19906;DHT22;10115;50.906;4.438;2024-02-28T02:04:26;3.20;99.90
19906;DHT22;10115;50.906;4.438;2024-02-28T02:06:52;3.10;99.90
19906;DHT22;10115;50.906;4.438;2024-02-28T02:09:24;3.10;99.90
19906;DHT22;10115;50.906;4.438;2024-02-28T02:11:51;3.10;99.90
19906;DHT22;10115;50.906;4.438;2024-02-28T02:14:16;3.10;99.90
19906;DHT22;10115;50.906;4.438;2024-02-28T02:16:42;3.10;99.90
19906;DHT22;10115;50.906;4.438;2024-02-28T02:19:09;3.10;99.90
19906;DHT22;10115;50.906;4.438;2024-02-28T02:21:41;3.10;99.90
19906;DHT22;10115;50.906;4.438;2024-02-28T02:24:09;3.10;99.90
19906;DHT22;10115;50.906;4.438;2024-02-28T02:26:35;3.10;99.90
19906;DHT22;10115;50.906;4.438;2024-02-28T02:29:00;3.10;99.90
19906;DHT22;10115;50.906;4.438;2024-02-28T02:31:26;3.10;99.90
19906;DHT22;10115;50.906;4.438;2024-02-28T02:33:51;3.10;99.90
19906;DHT22;10115;50.906;4.438;2024-02-28T02:36:17;3.20;99.90
19906;DHT22;10115;50.906;4.438;2024-02-28T02:38:43;3.10;99.90
19906;DHT22;10115;50.906;4.438;2024-02-28T02:41:08;3.10;99.90
19906;DHT22;10115;50.906;4.438;2024-02-28T02:43:34;3.30;99.90
19906;DHT22;10115;50.906;4.438;2024-02-28T02:46:00;3.20;99.90
19906;DHT22;10115;50.906;4.438;2024-02-28T02:48:25;3.20;99.90
19906;DHT22;10115;50.906;4.438;2024-02-28T02:50:51;3.20;99.90
19906;DHT22;10115;50.906;4.438;2024-02-28T02:53:17;3.10;99.90
19906;DHT22;10115;50.906;4.438;2024-02-28T02:55:43;2.90;99.90
19906;DHT22;10115;50.906;4.438;2024-02-28T02:58:08;3.10;99.90
19906;DHT22;10115;50.906;4.438;2024-02-28T03:00:34;3.10;99.90
19906;DHT22;10115;50.906;4.438;2024-02-28T03:02:59;3.10;99.90
19906;DHT22;10115;50.906;4.438;2024-02-28T03:05:25;3.00;99.90
19906;DHT22;10115;50.906;4.438;2024-02-28T03:07:50;2.90;99.90
19906;DHT22;10115;50.906;4.438;2024-02-28T03:10:16;2.90;99.90
19906;DHT22;10115;50.906;4.438;2024-02-28T03:12:42;2.90;99.90
19906;DHT22;10115;50.906;4.438;2024-02-28T03:15:08;3.00;99.90
19906;DHT22;10115;50.906;4.438;2024-02-28T03:17:33;2.90;99.90
19906;DHT22;10115;50.906;4.438;2024-02-28T03:19:59;2.80;99.90
19906;DHT22;10115;50.906;4.438;2024-02-28T03:22:24;2.70;99.90
19906;DHT22;10115;50.906;4.438;2024-02-28T03:24:50;2.70;99.90
19906;DHT22;10115;50.906;4.438;2024-02-28T03:27:16;2.70;99.90
19906;DHT22;10115;50.906;4.438;2024-02-28T03:29:41;2.70;99.90
19906;DHT22;10115;50.906;4.438;2024-02-28T03:32:07;2.80;99.90
19906;DHT22;10115;50.906;4.438;2024-02-28T03:34:33;2.80;99.90
19906;DHT22;10115;50.906;4.438;2024-02-28T03:36:59;2.80;99.90
19906;DHT22;10115;50.906;4.438;2024-02-28T03:39:24;2.70;99.90
19906;DHT22;10115;50.906;4.438;2024-02-28T03:41:50;2.80;99.90
19906;DHT22;10115;50.906;4.438;2024-02-28T03:44:15;2.70;99.90
19906;DHT22;10115;50.906;4.438;2024-02-28T03:46:41;2.70;99.90
19906;DHT22;10115;50.906;4.438;2024-02-28T03:49:07;2.70;99.90
19906;DHT22;10115;50.906;4.438;2024-02-28T03:51:32;2.80;99.90
19906;DHT22;10115;50.906;4.438;2024-02-28T03:54:05;2.70;99.90
19906;DHT22;10115;50.906;4.438;2024-02-28T03:56:30;2.80;99.90
19906;DHT22;10115;50.906;4.438;2024-02-28T03:58:56;2.70;99.90
19906;DHT22;10115;50.906;4.438;2024-02-28T04:01:21;2.70;99.90
19906;DHT22;10115;50.906;4.438;2024-02-28T04:03:47;2.80;99.90
19906;DHT22;10115;50.906;4.438;2024-02-28T04:06:13;2.90;99.90
19906;DHT22;10115;50.906;4.438;2024-02-28T04:08:41;2.80;99.90
19906;DHT22;10115;50.906;4.438;2024-02-28T04:11:07;2.70;99.90
19906;DHT22;10115;50.906;4.438;2024-02-28T04:13:33;2.60;99.90
19906;DHT22;10115;50.906;4.438;2024-02-28T04:15:58;2.70;99.90
19906;DHT22;10115;50.906;4.438;2024-02-28T04:18:24;2.70;99.90
19906;DHT22;10115;50.906;4.438;2024-02-28T04:20:50;2.70;99.90
19906;DHT22;10115;50.906;4.438;2024-02-28T04:23:15;2.60;99.90
19906;DHT22;10115;50.906;4.438;2024-02-28T04:25:42;2.60;99.90
19906;DHT22;10115;50.906;4.438;2024-02-28T04:28:08;2.60;99.90
19906;DHT22;10115;50.906;4.438;2024-02-28T04:30:34;2.60;99.90
19906;DHT22;10115;50.906;4.438;2024-02-28T04:33:00;2.60;99.90
19906;DHT22;10115;50.906;4.438;2024-02-28T04:35:25;2.80;99.90
19906;DHT22;10115;50.906;4.438;2024-02-28T04:37:51;2.90;99.90
19906;DHT22;10115;50.906;4.438;2024-02-28T04:40:16;2.80;99.90
19906;DHT22;10115;50.906;4.438;2024-02-28T04:42:42;2.80;99.90
19906;DHT22;10115;50.906;4.438;2024-02-28T04:45:09;2.80;99.90
19906;DHT22;10115;50.906;4.438;2024-02-28T04:47:36;2.70;99.90
19906;DHT22;10115;50.906;4.438;2024-02-28T04:50:02;2.60;99.90
19906;DHT22;10115;50.906;4.438;2024-02-28T04:52:30;2.60;99.90
19906;DHT22;10115;50.906;4.438;2024-02-28T04:54:56;2.60;99.90
19906;DHT22;10115;50.906;4.438;2024-02-28T04:57:22;2.50;99.90
19906;DHT22;10115;50.906;4.438;2024-02-28T04:59:48;2.60;99.90
19906;DHT22;10115;50.906;4.438;2024-02-28T05:02:13;2.80;99.90
19906;DHT22;10115;50.906;4.438;2024-02-28T05:04:39;2.80;99.90
19906;DHT22;10115;50.906;4.438;2024-02-28T05:07:04;2.80;99.90
19906;DHT22;10115;50.906;4.438;2024-02-28T05:09:35;2.80;99.90
19906;DHT22;10115;50.906;4.438;2024-02-28T05:12:01;2.80;99.90
19906;DHT22;10115;50.906;4.438;2024-02-28T05:14:27;3.00;99.90
19906;DHT22;10115;50.906;4.438;2024-02-28T05:16:53;3.00;99.90
19906;DHT22;10115;50.906;4.438;2024-02-28T05:19:18;2.90;99.90
19906;DHT22;10115;50.906;4.438;2024-02-28T05:21:45;2.70;99.90
19906;DHT22;10115;50.906;4.438;2024-02-28T05:24:11;2.70;99.90
19906;DHT22;10115;50.906;4.438;2024-02-28T05:26:38;2.70;99.90
19906;DHT22;10115;50.906;4.438;2024-02-28T05:29:05;2.70;99.90
19906;DHT22;10115;50.906;4.438;2024-02-28T05:31:31;2.70;99.90
19906;DHT22;10115;50.906;4.438;2024-02-28T05:33:58;2.60;99.90
19906;DHT22;10115;50.906;4.438;2024-02-28T05:36:25;2.70;99.90
19906;DHT22;10115;50.906;4.438;2024-02-28T05:38:52;2.60;99.90
19906;DHT22;10115;50.906;4.438;2024-02-28T05:41:18;2.70;99.90
19906;DHT22;10115;50.906;4.438;2024-02-28T05:43:44;2.60;99.90
19906;DHT22;10115;50.906;4.438;2024-02-28T05:46:11;2.60;99.90
19906;DHT22;10115;50.906;4.438;2024-02-28T05:48:36;2.70;99.90
19906;DHT22;10115;50.906;4.438;2024-02-28T05:51:02;2.90;99.90
19906;DHT22;10115;50.906;4.438;2024-02-28T05:53:29;2.90;99.90
19906;DHT22;10115;50.906;4.438;2024-02-28T05:55:58;2.90;99.90
19906;DHT22;10115;50.906;4.438;2024-02-28T05:58:23;2.90;99.90
19906;DHT22;10115;50.906;4.438;2024-02-28T06:00:50;2.90;99.90
19906;DHT22;10115;50.906;4.438;2024-02-28T06:03:16;2.90;99.90
19906;DHT22;10115;50.906;4.438;2024-02-28T06:05:42;2.80;99.90
19906;DHT22;10115;50.906;4.438;2024-02-28T06:08:07;2.80;99.90
19906;DHT22;10115;50.906;4.438;2024-02-28T06:10:33;2.80;99.90
19906;DHT22;10115;50.906;4.438;2024-02-28T06:12:58;2.90;99.90
19906;DHT22;10115;50.906;4.438;2024-02-28T06:15:26;3.00;99.90
19906;DHT22;10115;50.906;4.438;2024-02-28T06:17:51;3.00;99.90
19906;DHT22;10115;50.906;4.438;2024-02-28T06:20:17;3.10;99.90
19906;DHT22;10115;50.906;4.438;2024-02-28T06:22:43;3.10;99.90
19906;DHT22;10115;50.906;4.438;2024-02-28T06:25:09;3.30;99.90
19906;DHT22;10115;50.906;4.438;2024-02-28T06:27:43;3.20;99.90
19906;DHT22;10115;50.906;4.438;2024-02-28T06:30:09;3.30;99.90
19906;DHT22;10115;50.906;4.438;2024-02-28T06:32:35;3.40;99.90
19906;DHT22;10115;50.906;4.438;2024-02-28T06:35:00;3.50;99.90
19906;DHT22;10115;50.906;4.438;2024-02-28T06:37:26;3.50;99.90
19906;DHT22;10115;50.906;4.438;2024-02-28T06:39:52;3.70;99.90
19906;DHT22;10115;50.906;4.438;2024-02-28T06:42:18;3.70;99.90
19906;DHT22;10115;50.906;4.438;2024-02-28T06:44:44;3.80;99.90
19906;DHT22;10115;50.906;4.438;2024-02-28T06:47:10;3.90;99.90
19906;DHT22;10115;50.906;4.438;2024-02-28T06:49:35;4.10;99.90
19906;DHT22;10115;50.906;4.438;2024-02-28T06:52:01;4.20;99.90
19906;DHT22;10115;50.906;4.438;2024-02-28T06:54:27;4.20;99.90
19906;DHT22;10115;50.906;4.438;2024-02-28T06:56:54;4.20;99.90
19906;DHT22;10115;50.906;4.438;2024-02-28T06:59:20;4.30;99.90
19906;DHT22;10115;50.906;4.438;2024-02-28T07:01:45;4.40;99.90
19906;DHT22;10115;50.906;4.438;2024-02-28T07:04:11;4.50;99.90
19906;DHT22;10115;50.906;4.438;2024-02-28T07:06:37;4.60;99.90
19906;DHT22;10115;50.906;4.438;2024-02-28T07:09:02;4.70;99.90
19906;DHT22;10115;50.906;4.438;2024-02-28T07:11:28;4.90;99.90
19906;DHT22;10115;50.906;4.438;2024-02-28T07:13:54;5.20;99.90
19906;DHT22;10115;50.906;4.438;2024-02-28T07:16:19;5.20;99.90
19906;DHT22;10115;50.906;4.438;2024-02-28T07:18:45;5.40;99.90
19906;DHT22;10115;50.906;4.438;2024-02-28T07:21:10;5.50;99.90
19906;DHT22;10115;50.906;4.438;2024-02-28T07:23:39;5.60;99.90
19906;DHT22;10115;50.906;4.438;2024-02-28T07:26:06;5.70;99.90
19906;DHT22;10115;50.906;4.438;2024-02-28T07:28:32;5.70;99.90
19906;DHT22;10115;50.906;4.438;2024-02-28T07:30:58;5.90;99.90
19906;DHT22;10115;50.906;4.438;2024-02-28T07:33:23;6.10;99.90
19906;DHT22;10115;50.906;4.438;2024-02-28T07:35:52;6.20;99.90
19906;DHT22;10115;50.906;4.438;2024-02-28T07:38:18;6.10;99.90
19906;DHT22;10115;50.906;4.438;2024-02-28T07:40:47;6.20;99.90
19906;DHT22;10115;50.906;4.438;2024-02-28T07:43:13;6.20;99.90
19906;DHT22;10115;50.906;4.438;2024-02-28T07:45:39;6.20;99.90
19906;DHT22;10115;50.906;4.438;2024-02-28T07:48:05;6.10;99.90
19906;DHT22;10115;50.906;4.438;2024-02-28T07:50:31;6.40;99.90
19906;DHT22;10115;50.906;4.438;2024-02-28T07:52:57;6.50;99.90
19906;DHT22;10115;50.906;4.438;2024-02-28T07:55:22;6.30;99.90
19906;DHT22;10115;50.906;4.438;2024-02-28T07:57:52;6.40;99.90
19906;DHT22;10115;50.906;4.438;2024-02-28T08:00:18;6.50;99.90
19906;DHT22;10115;50.906;4.438;2024-02-28T08:02:45;6.70;99.90
19906;DHT22;10115;50.906;4.438;2024-02-28T08:05:11;6.80;99.90
19906;DHT22;10115;50.906;4.438;2024-02-28T08:07:36;6.80;99.90
19906;DHT22;10115;50.906;4.438;2024-02-28T08:10:03;6.90;99.90
19906;DHT22;10115;50.906;4.438;2024-02-28T08:12:31;6.90;99.90
19906;DHT22;10115;50.906;4.438;2024-02-28T08:14:57;6.90;99.90
19906;DHT22;10115;50.906;4.438;2024-02-28T08:17:23;6.90;99.90
19906;DHT22;10115;50.906;4.438;2024-02-28T08:19:49;6.80;99.90
19906;DHT22;10115;50.906;4.438;2024-02-28T08:22:14;6.80;99.90
19906;DHT22;10115;50.906;4.438;2024-02-28T08:24:40;6.70;99.90
19906;DHT22;10115;50.906;4.438;2024-02-28T08:27:05;6.70;99.90
19906;DHT22;10115;50.906;4.438;2024-02-28T08:29:31;6.70;99.90
19906;DHT22;10115;50.906;4.438;2024-02-28T08:31:58;6.70;99.90
19906;DHT22;10115;50.906;4.438;2024-02-28T08:34:24;6.80;99.90
19906;DHT22;10115;50.906;4.438;2024-02-28T08:36:50;7.00;99.90
19906;DHT22;10115;50.906;4.438;2024-02-28T08:39:17;7.10;99.90
19906;DHT22;10115;50.906;4.438;2024-02-28T08:41:43;7.20;99.90
19906;DHT22;10115;50.906;4.438;2024-02-28T08:44:08;7.40;99.90
19906;DHT22;10115;50.906;4.438;2024-02-28T08:46:34;7.60;99.90
19906;DHT22;10115;50.906;4.438;2024-02-28T08:48:59;7.60;99.90
19906;DHT22;10115;50.906;4.438;2024-02-28T08:51:25;7.70;99.90
19906;DHT22;10115;50.906;4.438;2024-02-28T08:53:51;7.70;99.90
19906;DHT22;10115;50.906;4.438;2024-02-28T08:56:18;7.70;99.90
19906;DHT22;10115;50.906;4.438;2024-02-28T08:58:44;7.70;99.90
19906;DHT22;10115;50.906;4.438;2024-02-28T09:01:14;7.60;99.90
19906;DHT22;10115;50.906;4.438;2024-02-28T09:03:40;7.70;99.90
19906;DHT22;10115;50.906;4.438;2024-02-28T09:06:06;7.80;99.90
19906;DHT22;10115;50.906;4.438;2024-02-28T09:08:32;8.00;99.90
19906;DHT22;10115;50.906;4.438;2024-02-28T09:10:58;7.80;99.90
19906;DHT22;10115;50.906;4.438;2024-02-28T09:13:23;7.60;99.90
19906;DHT22;10115;50.906;4.438;2024-02-28T09:15:49;7.70;99.90
19906;DHT22;10115;50.906;4.438;2024-02-28T09:18:15;7.80;99.90
19906;DHT22;10115;50.906;4.438;2024-02-28T09:20:41;7.80;99.90
19906;DHT22;10115;50.906;4.438;2024-02-28T09:23:07;7.60;99.90
19906;DHT22;10115;50.906;4.438;2024-02-28T09:25:32;7.60;99.90
19906;DHT22;10115;50.906;4.438;2024-02-28T09:28:00;7.80;99.90
19906;DHT22;10115;50.906;4.438;2024-02-28T09:30:26;7.80;99.90
19906;DHT22;10115;50.906;4.438;2024-02-28T09:32:51;7.50;99.90
19906;DHT22;10115;50.906;4.438;2024-02-28T09:35:17;7.50;99.90
19906;DHT22;10115;50.906;4.438;2024-02-28T09:37:43;7.30;99.90
19906;DHT22;10115;50.906;4.438;2024-02-28T09:40:09;7.40;99.90
19906;DHT22;10115;50.906;4.438;2024-02-28T09:42:36;7.50;99.90
19906;DHT22;10115;50.906;4.438;2024-02-28T09:45:02;7.70;99.90
19906;DHT22;10115;50.906;4.438;2024-02-28T09:47:29;7.90;99.90
19906;DHT22;10115;50.906;4.438;2024-02-28T09:49:57;8.10;99.90
19906;DHT22;10115;50.906;4.438;2024-02-28T09:52:24;8.40;99.90
19906;DHT22;10115;50.906;4.438;2024-02-28T09:54:50;8.50;99.90
19906;DHT22;10115;50.906;4.438;2024-02-28T09:57:16;8.80;99.90
19906;DHT22;10115;50.906;4.438;2024-02-28T09:59:42;9.20;99.90
19906;DHT22;10115;50.906;4.438;2024-02-28T10:02:10;9.40;99.90
19906;DHT22;10115;50.906;4.438;2024-02-28T10:04:37;9.50;99.90
19906;DHT22;10115;50.906;4.438;2024-02-28T10:07:13;9.30;99.90
19906;DHT22;10115;50.906;4.438;2024-02-28T10:09:39;9.50;99.90
19906;DHT22;10115;50.906;4.438;2024-02-28T10:12:05;8.90;99.90
19906;DHT22;10115;50.906;4.438;2024-02-28T10:14:31;9.00;99.90
19906;DHT22;10115;50.906;4.438;2024-02-28T10:16:56;9.40;99.90
19906;DHT22;10115;50.906;4.438;2024-02-28T10:19:22;9.60;99.90
19906;DHT22;10115;50.906;4.438;2024-02-28T10:21:48;10.10;99.90
19906;DHT22;10115;50.906;4.438;2024-02-28T10:24:13;10.00;99.90
19906;DHT22;10115;50.906;4.438;2024-02-28T10:26:46;9.90;99.90
19906;DHT22;10115;50.906;4.438;2024-02-28T10:29:21;9.70;99.90
19906;DHT22;10115;50.906;4.438;2024-02-28T10:31:46;9.90;99.90
19906;DHT22;10115;50.906;4.438;2024-02-28T10:34:14;9.80;99.90
19906;DHT22;10115;50.906;4.438;2024-02-28T10:36:42;10.00;99.90
19906;DHT22;10115;50.906;4.438;2024-02-28T10:39:09;10.10;99.90
19906;DHT22;10115;50.906;4.438;2024-02-28T10:41:38;10.10;99.90
19906;DHT22;10115;50.906;4.438;2024-02-28T10:44:04;10.30;99.90
19906;DHT22;10115;50.906;4.438;2024-02-28T10:46:30;10.40;99.90
19906;DHT22;10115;50.906;4.438;2024-02-28T10:48:56;10.10;99.90
19906;DHT22;10115;50.906;4.438;2024-02-28T10:51:26;9.50;99.90
19906;DHT22;10115;50.906;4.438;2024-02-28T10:54:12;9.10;99.90
19906;DHT22;10115;50.906;4.438;2024-02-28T10:56:39;8.80;99.90
19906;DHT22;10115;50.906;4.438;2024-02-28T10:59:07;8.80;99.90
19906;DHT22;10115;50.906;4.438;2024-02-28T11:01:52;8.70;99.90
19906;DHT22;10115;50.906;4.438;2024-02-28T11:04:18;8.80;99.90
19906;DHT22;10115;50.906;4.438;2024-02-28T11:06:53;9.10;99.90
19906;DHT22;10115;50.906;4.438;2024-02-28T11:09:24;9.60;99.90
19906;DHT22;10115;50.906;4.438;2024-02-28T11:11:51;10.00;99.90
19906;DHT22;10115;50.906;4.438;2024-02-28T11:14:17;9.80;99.90
19906;DHT22;10115;50.906;4.438;2024-02-28T11:16:46;9.40;99.90
19906;DHT22;10115;50.906;4.438;2024-02-28T11:19:21;9.30;99.90
19906;DHT22;10115;50.906;4.438;2024-02-28T11:21:54;9.50;99.90
19906;DHT22;10115;50.906;4.438;2024-02-28T11:24:24;9.70;99.90
19906;DHT22;10115;50.906;4.438;2024-02-28T11:26:53;9.90;99.90
19906;DHT22;10115;50.906;4.438;2024-02-28T11:29:26;10.10;99.90
19906;DHT22;10115;50.906;4.438;2024-02-28T11:31:52;9.80;99.90
19906;DHT22;10115;50.906;4.438;2024-02-28T11:34:19;9.80;99.90
19906;DHT22;10115;50.906;4.438;2024-02-28T11:36:47;10.00;99.90
19906;DHT22;10115;50.906;4.438;2024-02-28T11:39:14;10.10;99.90
19906;DHT22;10115;50.906;4.438;2024-02-28T11:41:41;9.90;99.90
19906;DHT22;10115;50.906;4.438;2024-02-28T11:44:06;10.10;99.90
19906;DHT22;10115;50.906;4.438;2024-02-28T11:46:32;10.00;99.90
19906;DHT22;10115;50.906;4.438;2024-02-28T11:48:58;10.30;99.90
19906;DHT22;10115;50.906;4.438;2024-02-28T11:51:24;10.40;99.90
19906;DHT22;10115;50.906;4.438;2024-02-28T11:53:50;10.60;99.90
19906;DHT22;10115;50.906;4.438;2024-02-28T11:56:16;10.00;99.90
19906;DHT22;10115;50.906;4.438;2024-02-28T11:58:53;9.70;99.90
19906;DHT22;10115;50.906;4.438;2024-02-28T12:01:31;9.80;99.90
19906;DHT22;10115;50.906;4.438;2024-02-28T12:03:57;10.00;99.90
19906;DHT22;10115;50.906;4.438;2024-02-28T12:06:23;9.90;99.90
19906;DHT22;10115;50.906;4.438;2024-02-28T12:08:49;10.00;99.90
19906;DHT22;10115;50.906;4.438;2024-02-28T12:11:15;10.20;99.90
19906;DHT22;10115;50.906;4.438;2024-02-28T12:13:41;10.30;99.90
19906;DHT22;10115;50.906;4.438;2024-02-28T12:16:08;10.20;99.90
19906;DHT22;10115;50.906;4.438;2024-02-28T12:18:34;10.40;99.90
19906;DHT22;10115;50.906;4.438;2024-02-28T12:21:00;10.80;99.90
19906;DHT22;10115;50.906;4.438;2024-02-28T12:23:26;11.10;99.90
19906;DHT22;10115;50.906;4.438;2024-02-28T12:25:52;11.40;99.90
19906;DHT22;10115;50.906;4.438;2024-02-28T12:28:17;11.50;99.90
19906;DHT22;10115;50.906;4.438;2024-02-28T12:30:43;11.80;99.90
19906;DHT22;10115;50.906;4.438;2024-02-28T12:33:10;11.70;99.90
19906;DHT22;10115;50.906;4.438;2024-02-28T12:35:39;11.70;99.90
19906;DHT22;10115;50.906;4.438;2024-02-28T12:38:05;11.70;99.90
19906;DHT22;10115;50.906;4.438;2024-02-28T12:40:31;11.60;99.90
19906;DHT22;10115;50.906;4.438;2024-02-28T12:42:56;11.40;99.90
19906;DHT22;10115;50.906;4.438;2024-02-28T12:45:22;11.40;99.90
19906;DHT22;10115;50.906;4.438;2024-02-28T12:47:48;11.30;99.90
19906;DHT22;10115;50.906;4.438;2024-02-28T12:50:13;11.40;99.90
19906;DHT22;10115;50.906;4.438;2024-02-28T12:52:39;11.20;99.90
19906;DHT22;10115;50.906;4.438;2024-02-28T12:55:05;10.80;99.90
19906;DHT22;10115;50.906;4.438;2024-02-28T12:57:30;10.90;99.90
19906;DHT22;10115;50.906;4.438;2024-02-28T12:59:56;10.80;99.90
19906;DHT22;10115;50.906;4.438;2024-02-28T13:02:22;10.80;99.90
19906;DHT22;10115;50.906;4.438;2024-02-28T13:04:48;11.10;99.90
19906;DHT22;10115;50.906;4.438;2024-02-28T13:07:14;10.90;99.90
19906;DHT22;10115;50.906;4.438;2024-02-28T13:09:40;10.90;99.90
19906;DHT22;10115;50.906;4.438;2024-02-28T13:12:07;10.60;99.90
19906;DHT22;10115;50.906;4.438;2024-02-28T13:14:34;10.50;99.90
19906;DHT22;10115;50.906;4.438;2024-02-28T13:16:59;10.50;99.90
19906;DHT22;10115;50.906;4.438;2024-02-28T13:19:25;10.50;99.90
19906;DHT22;10115;50.906;4.438;2024-02-28T13:21:51;10.30;99.90
19906;DHT22;10115;50.906;4.438;2024-02-28T13:24:17;10.20;99.90
19906;DHT22;10115;50.906;4.438;2024-02-28T13:26:42;10.10;99.90
19906;DHT22;10115;50.906;4.438;2024-02-28T13:29:08;10.10;99.90
19906;DHT22;10115;50.906;4.438;2024-02-28T13:31:34;10.20;99.90
19906;DHT22;10115;50.906;4.438;2024-02-28T13:34:00;10.30;99.90
19906;DHT22;10115;50.906;4.438;2024-02-28T13:36:28;10.60;99.90
19906;DHT22;10115;50.906;4.438;2024-02-28T13:38:54;11.30;99.90
19906;DHT22;10115;50.906;4.438;2024-02-28T13:41:19;11.20;99.90
19906;DHT22;10115;50.906;4.438;2024-02-28T13:43:45;11.00;99.90
19906;DHT22;10115;50.906;4.438;2024-02-28T13:46:11;11.00;99.90
19906;DHT22;10115;50.906;4.438;2024-02-28T13:48:37;11.00;99.90
19906;DHT22;10115;50.906;4.438;2024-02-28T13:51:03;10.90;99.90
19906;DHT22;10115;50.906;4.438;2024-02-28T13:53:29;11.30;99.90
19906;DHT22;10115;50.906;4.438;2024-02-28T13:55:55;11.60;99.90
19906;DHT22;10115;50.906;4.438;2024-02-28T13:58:21;11.80;99.90
19906;DHT22;10115;50.906;4.438;2024-02-28T14:00:47;11.80;99.90
19906;DHT22;10115;50.906;4.438;2024-02-28T14:03:13;11.20;99.90
19906;DHT22;10115;50.906;4.438;2024-02-28T14:05:39;10.70;99.90
19906;DHT22;10115;50.906;4.438;2024-02-28T14:08:06;10.80;99.90
19906;DHT22;10115;50.906;4.438;2024-02-28T14:10:35;11.00;99.90
19906;DHT22;10115;50.906;4.438;2024-02-28T14:13:01;11.10;99.90
19906;DHT22;10115;50.906;4.438;2024-02-28T14:15:26;10.90;99.90
19906;DHT22;10115;50.906;4.438;2024-02-28T14:17:52;10.50;99.90
19906;DHT22;10115;50.906;4.438;2024-02-28T14:20:18;10.50;99.90
19906;DHT22;10115;50.906;4.438;2024-02-28T14:22:44;10.70;99.90
19906;DHT22;10115;50.906;4.438;2024-02-28T14:25:15;10.70;99.90
19906;DHT22;10115;50.906;4.438;2024-02-28T14:27:45;11.00;99.90
19906;DHT22;10115;50.906;4.438;2024-02-28T14:30:12;11.50;99.90
19906;DHT22;10115;50.906;4.438;2024-02-28T14:32:39;11.40;99.90
19906;DHT22;10115;50.906;4.438;2024-02-28T14:35:06;11.70;99.90
19906;DHT22;10115;50.906;4.438;2024-02-28T14:37:35;11.80;99.90
19906;DHT22;10115;50.906;4.438;2024-02-28T14:40:02;11.90;99.90
19906;DHT22;10115;50.906;4.438;2024-02-28T14:42:32;11.90;99.90
19906;DHT22;10115;50.906;4.438;2024-02-28T14:44:58;11.60;99.90
19906;DHT22;10115;50.906;4.438;2024-02-28T14:47:23;11.80;99.90
19906;DHT22;10115;50.906;4.438;2024-02-28T14:49:49;12.00;99.90
19906;DHT22;10115;50.906;4.438;2024-02-28T14:52:15;11.80;99.90
19906;DHT22;10115;50.906;4.438;2024-02-28T14:54:41;11.50;99.90
19906;DHT22;10115;50.906;4.438;2024-02-28T14:57:07;11.50;99.90
19906;DHT22;10115;50.906;4.438;2024-02-28T14:59:33;11.60;99.90
19906;DHT22;10115;50.906;4.438;2024-02-28T15:01:59;11.90;99.90
19906;DHT22;10115;50.906;4.438;2024-02-28T15:04:25;11.30;99.90
19906;DHT22;10115;50.906;4.438;2024-02-28T15:06:51;11.40;99.90
19906;DHT22;10115;50.906;4.438;2024-02-28T15:09:20;11.30;99.90
19906;DHT22;10115;50.906;4.438;2024-02-28T15:11:49;11.40;99.90
19906;DHT22;10115;50.906;4.438;2024-02-28T15:14:15;11.20;99.90
19906;DHT22;10115;50.906;4.438;2024-02-28T15:16:41;11.20;99.90
19906;DHT22;10115;50.906;4.438;2024-02-28T15:19:07;11.30;99.90
19906;DHT22;10115;50.906;4.438;2024-02-28T15:21:32;11.80;99.90
19906;DHT22;10115;50.906;4.438;2024-02-28T15:23:58;11.80;99.90
19906;DHT22;10115;50.906;4.438;2024-02-28T15:26:24;11.40;99.90
19906;DHT22;10115;50.906;4.438;2024-02-28T15:28:49;11.40;99.90
19906;DHT22;10115;50.906;4.438;2024-02-28T15:31:15;11.60;99.90
19906;DHT22;10115;50.906;4.438;2024-02-28T15:33:41;11.30;99.90
19906;DHT22;10115;50.906;4.438;2024-02-28T15:36:06;11.30;99.90